sensor_id;sensor_type;location;lat;lon;timestamp;P1;durP1;ratioP1;P2;durP2;ratioP2
23001;SDS011;11667;51.706;4.856;2023-02-26T00:01:54;10.18;;;3.65;;
23001;SDS011;11667;51.706;4.856;2023-02-26T00:04:25;12.40;;;3.77;;
23001;SDS011;11667;51.706;4.856;2023-02-26T00:06:54;7.40;;;3.65;;
23001;SDS011;11667;51.706;4.856;2023-02-26T00:09:25;8.00;;;3.25;;
23001;SDS011;11667;51.706;4.856;2023-02-26T00:11:56;12.28;;;3.50;;
23001;SDS011;11667;51.706;4.856;2023-02-26T00:14:26;11.45;;;3.47;;
23001;SDS011;11667;51.706;4.856;2023-02-26T00:17:06;12.98;;;3.65;;
23001;SDS011;11667;51.706;4.856;2023-02-26T00:19:28;16.90;;;3.50;;
23001;SDS011;11667;51.706;4.856;2023-02-26T00:21:58;10.45;;;3.35;;
23001;SDS011;11667;51.706;4.856;2023-02-26T00:24:28;10.72;;;3.58;;
23001;SDS011;11667;51.706;4.856;2023-02-26T00:26:57;10.53;;;3.05;;
23001;SDS011;11667;51.706;4.856;2023-02-26T00:29:27;8.70;;;3.62;;
23001;SDS011;11667;51.706;4.856;2023-02-26T00:31:57;12.13;;;3.67;;
23001;SDS011;11667;51.706;4.856;2023-02-26T00:34:27;11.70;;;3.22;;
23001;SDS011;11667;51.706;4.856;2023-02-26T00:42:25;14.25;;;3.30;;
23001;SDS011;11667;51.706;4.856;2023-02-26T00:44:55;11.43;;;2.90;;
23001;SDS011;11667;51.706;4.856;2023-02-26T00:50:22;13.48;;;3.17;;
23001;SDS011;11667;51.706;4.856;2023-02-26T00:55:25;7.97;;;2.80;;
23001;SDS011;11667;51.706;4.856;2023-02-26T00:57:56;12.25;;;3.20;;
23001;SDS011;11667;51.706;4.856;2023-02-26T01:00:25;13.08;;;3.10;;
23001;SDS011;11667;51.706;4.856;2023-02-26T01:02:55;9.83;;;2.92;;
23001;SDS011;11667;51.706;4.856;2023-02-26T01:05:25;11.60;;;3.40;;
23001;SDS011;11667;51.706;4.856;2023-02-26T01:10:59;8.70;;;2.85;;
23001;SDS011;11667;51.706;4.856;2023-02-26T01:13:29;7.62;;;3.00;;
23001;SDS011;11667;51.706;4.856;2023-02-26T01:16:01;11.73;;;3.12;;
23001;SDS011;11667;51.706;4.856;2023-02-26T01:18:37;7.25;;;2.80;;
23001;SDS011;11667;51.706;4.856;2023-02-26T01:21:07;10.88;;;3.00;;
23001;SDS011;11667;51.706;4.856;2023-02-26T01:23:39;8.00;;;2.75;;
23001;SDS011;11667;51.706;4.856;2023-02-26T01:28:47;9.28;;;2.70;;
23001;SDS011;11667;51.706;4.856;2023-02-26T01:34:25;8.23;;;2.58;;
23001;SDS011;11667;51.706;4.856;2023-02-26T01:36:53;10.28;;;2.40;;
23001;SDS011;11667;51.706;4.856;2023-02-26T01:42:10;8.05;;;2.37;;
23001;SDS011;11667;51.706;4.856;2023-02-26T01:44:41;8.80;;;2.83;;
23001;SDS011;11667;51.706;4.856;2023-02-26T01:47:29;9.05;;;2.20;;
23001;SDS011;11667;51.706;4.856;2023-02-26T01:55:26;7.33;;;2.10;;
23001;SDS011;11667;51.706;4.856;2023-02-26T01:57:52;6.10;;;2.10;;
23001;SDS011;11667;51.706;4.856;2023-02-26T02:00:23;9.13;;;1.90;;
23001;SDS011;11667;51.706;4.856;2023-02-26T02:02:52;9.50;;;2.08;;
23001;SDS011;11667;51.706;4.856;2023-02-26T02:05:34;12.13;;;2.20;;
23001;SDS011;11667;51.706;4.856;2023-02-26T02:07:58;6.40;;;2.08;;
23001;SDS011;11667;51.706;4.856;2023-02-26T02:10:28;9.55;;;2.12;;
23001;SDS011;11667;51.706;4.856;2023-02-26T02:18:33;6.58;;;1.60;;
23001;SDS011;11667;51.706;4.856;2023-02-26T02:23:56;7.05;;;1.70;;
23001;SDS011;11667;51.706;4.856;2023-02-26T02:29:27;7.75;;;1.60;;
23001;SDS011;11667;51.706;4.856;2023-02-26T02:32:14;6.72;;;1.80;;
23001;SDS011;11667;51.706;4.856;2023-02-26T02:34:56;9.63;;;1.87;;
23001;SDS011;11667;51.706;4.856;2023-02-26T02:37:33;6.60;;;1.57;;
23001;SDS011;11667;51.706;4.856;2023-02-26T02:40:00;11.60;;;1.70;;
23001;SDS011;11667;51.706;4.856;2023-02-26T02:42:33;6.65;;;1.47;;
23001;SDS011;11667;51.706;4.856;2023-02-26T02:45:07;5.62;;;1.50;;
23001;SDS011;11667;51.706;4.856;2023-02-26T02:47:38;6.17;;;1.65;;
23001;SDS011;11667;51.706;4.856;2023-02-26T02:50:14;5.58;;;1.20;;
23001;SDS011;11667;51.706;4.856;2023-02-26T02:52:52;6.10;;;1.47;;
23001;SDS011;11667;51.706;4.856;2023-02-26T02:55:25;6.20;;;1.40;;
23001;SDS011;11667;51.706;4.856;2023-02-26T02:57:58;8.03;;;1.47;;
23001;SDS011;11667;51.706;4.856;2023-02-26T03:00:31;7.28;;;1.62;;
23001;SDS011;11667;51.706;4.856;2023-02-26T03:06:04;9.70;;;1.50;;
23001;SDS011;11667;51.706;4.856;2023-02-26T03:08:35;4.35;;;1.12;;
23001;SDS011;11667;51.706;4.856;2023-02-26T03:11:08;4.87;;;1.07;;
23001;SDS011;11667;51.706;4.856;2023-02-26T03:13:37;11.20;;;1.65;;
23001;SDS011;11667;51.706;4.856;2023-02-26T03:16:19;8.53;;;1.45;;
23001;SDS011;11667;51.706;4.856;2023-02-26T03:21:46;6.70;;;1.47;;
23001;SDS011;11667;51.706;4.856;2023-02-26T03:24:35;7.80;;;1.20;;
23001;SDS011;11667;51.706;4.856;2023-02-26T03:27:10;5.33;;;1.15;;
23001;SDS011;11667;51.706;4.856;2023-02-26T03:29:48;5.87;;;1.32;;
23001;SDS011;11667;51.706;4.856;2023-02-26T03:32:47;8.50;;;1.60;;
23001;SDS011;11667;51.706;4.856;2023-02-26T03:35:38;7.42;;;0.90;;
23001;SDS011;11667;51.706;4.856;2023-02-26T03:38:27;7.33;;;1.15;;
23001;SDS011;11667;51.706;4.856;2023-02-26T03:40:58;4.83;;;1.22;;
23001;SDS011;11667;51.706;4.856;2023-02-26T03:43:34;6.40;;;1.10;;
23001;SDS011;11667;51.706;4.856;2023-02-26T03:46:04;10.15;;;1.22;;
23001;SDS011;11667;51.706;4.856;2023-02-26T03:48:35;7.70;;;1.20;;
23001;SDS011;11667;51.706;4.856;2023-02-26T03:51:07;4.05;;;1.15;;
23001;SDS011;11667;51.706;4.856;2023-02-26T03:54:03;4.05;;;1.07;;
23001;SDS011;11667;51.706;4.856;2023-02-26T03:56:30;3.33;;;1.10;;
23001;SDS011;11667;51.706;4.856;2023-02-26T03:59:11;8.90;;;1.47;;
23001;SDS011;11667;51.706;4.856;2023-02-26T04:01:52;5.47;;;1.10;;
23001;SDS011;11667;51.706;4.856;2023-02-26T04:04:26;7.17;;;1.20;;
23001;SDS011;11667;51.706;4.856;2023-02-26T04:09:30;5.60;;;1.15;;
23001;SDS011;11667;51.706;4.856;2023-02-26T04:12:00;6.90;;;1.27;;
23001;SDS011;11667;51.706;4.856;2023-02-26T04:14:29;5.37;;;1.25;;
23001;SDS011;11667;51.706;4.856;2023-02-26T04:16:58;3.98;;;0.95;;
23001;SDS011;11667;51.706;4.856;2023-02-26T04:19:28;5.92;;;1.10;;
23001;SDS011;11667;51.706;4.856;2023-02-26T04:21:57;7.65;;;1.30;;
23001;SDS011;11667;51.706;4.856;2023-02-26T04:24:26;8.38;;;1.30;;
23001;SDS011;11667;51.706;4.856;2023-02-26T04:26:58;5.60;;;1.30;;
23001;SDS011;11667;51.706;4.856;2023-02-26T04:29:29;6.42;;;1.10;;
23001;SDS011;11667;51.706;4.856;2023-02-26T04:31:59;10.50;;;0.98;;
23001;SDS011;11667;51.706;4.856;2023-02-26T04:34:29;9.33;;;1.05;;
23001;SDS011;11667;51.706;4.856;2023-02-26T04:36:59;6.15;;;1.42;;
23001;SDS011;11667;51.706;4.856;2023-02-26T04:39:29;6.50;;;1.22;;
23001;SDS011;11667;51.706;4.856;2023-02-26T04:41:58;2.33;;;0.90;;
23001;SDS011;11667;51.706;4.856;2023-02-26T04:44:28;6.80;;;0.80;;
23001;SDS011;11667;51.706;4.856;2023-02-26T04:46:58;6.47;;;1.22;;
23001;SDS011;11667;51.706;4.856;2023-02-26T04:49:28;2.58;;;0.98;;
23001;SDS011;11667;51.706;4.856;2023-02-26T04:51:58;9.08;;;1.00;;
23001;SDS011;11667;51.706;4.856;2023-02-26T04:54:27;5.17;;;1.15;;
23001;SDS011;11667;51.706;4.856;2023-02-26T04:56:57;11.38;;;1.27;;
23001;SDS011;11667;51.706;4.856;2023-02-26T04:59:26;8.70;;;1.10;;
23001;SDS011;11667;51.706;4.856;2023-02-26T05:01:56;5.33;;;1.00;;
23001;SDS011;11667;51.706;4.856;2023-02-26T05:04:26;6.05;;;1.15;;
23001;SDS011;11667;51.706;4.856;2023-02-26T05:06:58;8.03;;;1.10;;
23001;SDS011;11667;51.706;4.856;2023-02-26T05:09:27;6.33;;;1.00;;
23001;SDS011;11667;51.706;4.856;2023-02-26T05:11:57;3.62;;;1.00;;
23001;SDS011;11667;51.706;4.856;2023-02-26T05:14:26;5.85;;;1.10;;
23001;SDS011;11667;51.706;4.856;2023-02-26T05:16:56;7.12;;;1.10;;
23001;SDS011;11667;51.706;4.856;2023-02-26T05:19:26;3.60;;;1.07;;
23001;SDS011;11667;51.706;4.856;2023-02-26T05:21:55;8.80;;;1.02;;
23001;SDS011;11667;51.706;4.856;2023-02-26T05:24:25;2.83;;;0.80;;
23001;SDS011;11667;51.706;4.856;2023-02-26T05:26:54;6.33;;;1.20;;
23001;SDS011;11667;51.706;4.856;2023-02-26T05:29:24;7.25;;;1.32;;
23001;SDS011;11667;51.706;4.856;2023-02-26T05:31:54;4.53;;;0.95;;
23001;SDS011;11667;51.706;4.856;2023-02-26T05:34:24;5.72;;;1.20;;
23001;SDS011;11667;51.706;4.856;2023-02-26T05:36:53;2.65;;;1.20;;
23001;SDS011;11667;51.706;4.856;2023-02-26T05:39:22;5.67;;;1.20;;
23001;SDS011;11667;51.706;4.856;2023-02-26T05:41:51;7.62;;;1.22;;
23001;SDS011;11667;51.706;4.856;2023-02-26T05:44:22;5.65;;;1.02;;
23001;SDS011;11667;51.706;4.856;2023-02-26T05:46:51;3.45;;;0.90;;
23001;SDS011;11667;51.706;4.856;2023-02-26T05:49:21;9.63;;;1.22;;
23001;SDS011;11667;51.706;4.856;2023-02-26T05:51:50;9.20;;;1.32;;
23001;SDS011;11667;51.706;4.856;2023-02-26T05:54:19;5.80;;;1.25;;
23001;SDS011;11667;51.706;4.856;2023-02-26T05:56:49;9.83;;;1.75;;
23001;SDS011;11667;51.706;4.856;2023-02-26T05:59:19;5.00;;;1.10;;
23001;SDS011;11667;51.706;4.856;2023-02-26T06:01:48;7.78;;;1.05;;
23001;SDS011;11667;51.706;4.856;2023-02-26T06:04:18;4.60;;;1.12;;
23001;SDS011;11667;51.706;4.856;2023-02-26T06:06:47;6.90;;;1.02;;
23001;SDS011;11667;51.706;4.856;2023-02-26T06:09:16;6.35;;;1.10;;
23001;SDS011;11667;51.706;4.856;2023-02-26T06:11:46;4.37;;;1.00;;
23001;SDS011;11667;51.706;4.856;2023-02-26T06:14:15;4.80;;;1.05;;
23001;SDS011;11667;51.706;4.856;2023-02-26T06:16:45;1.80;;;0.90;;
23001;SDS011;11667;51.706;4.856;2023-02-26T06:19:14;5.30;;;0.95;;
23001;SDS011;11667;51.706;4.856;2023-02-26T06:21:43;11.18;;;1.22;;
23001;SDS011;11667;51.706;4.856;2023-02-26T06:24:13;4.12;;;1.22;;
23001;SDS011;11667;51.706;4.856;2023-02-26T06:26:43;3.22;;;0.93;;
23001;SDS011;11667;51.706;4.856;2023-02-26T06:29:12;9.00;;;1.10;;
23001;SDS011;11667;51.706;4.856;2023-02-26T06:31:41;5.70;;;1.30;;
23001;SDS011;11667;51.706;4.856;2023-02-26T06:34:12;7.25;;;1.00;;
23001;SDS011;11667;51.706;4.856;2023-02-26T06:36:41;5.40;;;1.30;;
23001;SDS011;11667;51.706;4.856;2023-02-26T06:39:11;2.33;;;0.90;;
23001;SDS011;11667;51.706;4.856;2023-02-26T06:41:41;5.75;;;1.20;;
23001;SDS011;11667;51.706;4.856;2023-02-26T06:44:10;4.17;;;0.98;;
23001;SDS011;11667;51.706;4.856;2023-02-26T06:46:39;7.00;;;1.20;;
23001;SDS011;11667;51.706;4.856;2023-02-26T06:49:09;2.08;;;0.80;;
23001;SDS011;11667;51.706;4.856;2023-02-26T06:51:38;5.15;;;1.00;;
23001;SDS011;11667;51.706;4.856;2023-02-26T06:54:08;3.17;;;1.10;;
23001;SDS011;11667;51.706;4.856;2023-02-26T06:56:37;5.47;;;0.95;;
23001;SDS011;11667;51.706;4.856;2023-02-26T06:59:07;3.12;;;0.80;;
23001;SDS011;11667;51.706;4.856;2023-02-26T07:01:36;2.95;;;1.02;;
23001;SDS011;11667;51.706;4.856;2023-02-26T07:04:06;4.10;;;1.00;;
23001;SDS011;11667;51.706;4.856;2023-02-26T07:06:35;4.30;;;0.90;;
23001;SDS011;11667;51.706;4.856;2023-02-26T07:09:05;3.40;;;1.00;;
23001;SDS011;11667;51.706;4.856;2023-02-26T07:11:34;5.33;;;1.07;;
23001;SDS011;11667;51.706;4.856;2023-02-26T07:14:04;4.67;;;1.00;;
23001;SDS011;11667;51.706;4.856;2023-02-26T07:16:33;6.03;;;1.10;;
23001;SDS011;11667;51.706;4.856;2023-02-26T07:19:03;4.80;;;1.10;;
23001;SDS011;11667;51.706;4.856;2023-02-26T07:21:32;6.08;;;0.90;;
23001;SDS011;11667;51.706;4.856;2023-02-26T07:24:02;3.90;;;0.90;;
23001;SDS011;11667;51.706;4.856;2023-02-26T07:26:32;5.62;;;1.20;;
23001;SDS011;11667;51.706;4.856;2023-02-26T07:29:01;4.12;;;1.15;;
23001;SDS011;11667;51.706;4.856;2023-02-26T07:31:31;5.83;;;1.00;;
23001;SDS011;11667;51.706;4.856;2023-02-26T07:34:01;2.95;;;1.00;;
23001;SDS011;11667;51.706;4.856;2023-02-26T07:36:30;5.78;;;0.98;;
23001;SDS011;11667;51.706;4.856;2023-02-26T07:39:00;9.98;;;1.25;;
23001;SDS011;11667;51.706;4.856;2023-02-26T07:41:29;4.50;;;1.17;;
23001;SDS011;11667;51.706;4.856;2023-02-26T07:43:58;2.50;;;1.00;;
23001;SDS011;11667;51.706;4.856;2023-02-26T07:46:28;5.22;;;1.10;;
23001;SDS011;11667;51.706;4.856;2023-02-26T07:48:57;7.45;;;1.05;;
23001;SDS011;11667;51.706;4.856;2023-02-26T07:51:27;5.40;;;1.20;;
23001;SDS011;11667;51.706;4.856;2023-02-26T07:53:58;6.62;;;1.00;;
23001;SDS011;11667;51.706;4.856;2023-02-26T07:56:27;3.85;;;1.52;;
23001;SDS011;11667;51.706;4.856;2023-02-26T07:58:57;4.70;;;1.10;;
23001;SDS011;11667;51.706;4.856;2023-02-26T08:01:27;3.85;;;1.22;;
23001;SDS011;11667;51.706;4.856;2023-02-26T08:03:56;3.17;;;0.98;;
23001;SDS011;11667;51.706;4.856;2023-02-26T08:06:25;5.53;;;1.00;;
23001;SDS011;11667;51.706;4.856;2023-02-26T08:08:55;7.58;;;1.35;;
23001;SDS011;11667;51.706;4.856;2023-02-26T08:11:25;3.12;;;0.90;;
23001;SDS011;11667;51.706;4.856;2023-02-26T08:13:54;4.17;;;1.07;;
23001;SDS011;11667;51.706;4.856;2023-02-26T08:16:24;5.78;;;0.90;;
23001;SDS011;11667;51.706;4.856;2023-02-26T08:18:54;2.33;;;1.02;;
23001;SDS011;11667;51.706;4.856;2023-02-26T08:21:23;3.40;;;1.05;;
23001;SDS011;11667;51.706;4.856;2023-02-26T08:23:53;2.67;;;1.00;;
23001;SDS011;11667;51.706;4.856;2023-02-26T08:26:22;3.80;;;0.90;;
23001;SDS011;11667;51.706;4.856;2023-02-26T08:28:52;5.30;;;1.17;;
23001;SDS011;11667;51.706;4.856;2023-02-26T08:31:22;3.58;;;1.00;;
23001;SDS011;11667;51.706;4.856;2023-02-26T08:33:52;4.03;;;0.90;;
23001;SDS011;11667;51.706;4.856;2023-02-26T08:36:22;4.40;;;1.00;;
23001;SDS011;11667;51.706;4.856;2023-02-26T08:38:53;3.42;;;1.10;;
23001;SDS011;11667;51.706;4.856;2023-02-26T08:41:22;5.42;;;1.50;;
23001;SDS011;11667;51.706;4.856;2023-02-26T08:43:54;1.75;;;0.98;;
23001;SDS011;11667;51.706;4.856;2023-02-26T08:46:24;6.55;;;1.00;;
23001;SDS011;11667;51.706;4.856;2023-02-26T08:48:54;2.30;;;0.90;;
23001;SDS011;11667;51.706;4.856;2023-02-26T08:51:24;7.42;;;1.00;;
23001;SDS011;11667;51.706;4.856;2023-02-26T08:53:54;4.92;;;1.02;;
23001;SDS011;11667;51.706;4.856;2023-02-26T08:56:23;3.72;;;1.12;;
23001;SDS011;11667;51.706;4.856;2023-02-26T08:58:53;4.47;;;1.30;;
23001;SDS011;11667;51.706;4.856;2023-02-26T09:01:23;2.77;;;0.90;;
23001;SDS011;11667;51.706;4.856;2023-02-26T09:03:52;3.12;;;1.10;;
23001;SDS011;11667;51.706;4.856;2023-02-26T09:06:22;3.83;;;1.10;;
23001;SDS011;11667;51.706;4.856;2023-02-26T09:08:52;2.52;;;0.80;;
23001;SDS011;11667;51.706;4.856;2023-02-26T09:11:21;6.30;;;1.20;;
23001;SDS011;11667;51.706;4.856;2023-02-26T09:13:52;2.55;;;1.45;;
23001;SDS011;11667;51.706;4.856;2023-02-26T09:16:21;3.62;;;0.78;;
23001;SDS011;11667;51.706;4.856;2023-02-26T09:18:51;4.72;;;1.00;;
23001;SDS011;11667;51.706;4.856;2023-02-26T09:21:20;5.25;;;1.00;;
23001;SDS011;11667;51.706;4.856;2023-02-26T09:23:50;3.62;;;0.90;;
23001;SDS011;11667;51.706;4.856;2023-02-26T09:26:20;6.05;;;1.00;;
23001;SDS011;11667;51.706;4.856;2023-02-26T09:28:49;3.50;;;1.22;;
23001;SDS011;11667;51.706;4.856;2023-02-26T09:31:19;3.90;;;1.30;;
23001;SDS011;11667;51.706;4.856;2023-02-26T09:33:48;4.03;;;1.00;;
23001;SDS011;11667;51.706;4.856;2023-02-26T09:36:18;3.37;;;1.15;;
23001;SDS011;11667;51.706;4.856;2023-02-26T09:38:47;2.50;;;0.70;;
23001;SDS011;11667;51.706;4.856;2023-02-26T09:41:21;3.98;;;1.20;;
23001;SDS011;11667;51.706;4.856;2023-02-26T09:53:30;4.65;;;1.00;;
23001;SDS011;11667;51.706;4.856;2023-02-26T09:57:54;2.85;;;0.78;;
23001;SDS011;11667;51.706;4.856;2023-02-26T10:03:05;2.47;;;0.70;;
23001;SDS011;11667;51.706;4.856;2023-02-26T10:05:54;4.65;;;0.90;;
23001;SDS011;11667;51.706;4.856;2023-02-26T10:08:25;7.17;;;0.98;;
23001;SDS011;11667;51.706;4.856;2023-02-26T10:11:09;3.42;;;1.00;;
23001;SDS011;11667;51.706;4.856;2023-02-26T10:13:47;2.35;;;0.88;;
23001;SDS011;11667;51.706;4.856;2023-02-26T10:16:17;3.25;;;0.90;;
23001;SDS011;11667;51.706;4.856;2023-02-26T10:18:50;2.87;;;0.90;;
23001;SDS011;11667;51.706;4.856;2023-02-26T10:21:35;3.37;;;0.85;;
23001;SDS011;11667;51.706;4.856;2023-02-26T10:24:13;3.83;;;0.90;;
23001;SDS011;11667;51.706;4.856;2023-02-26T10:26:42;2.05;;;0.95;;
23001;SDS011;11667;51.706;4.856;2023-02-26T10:29:21;1.92;;;0.70;;
23001;SDS011;11667;51.706;4.856;2023-02-26T10:34:46;2.08;;;0.85;;
23001;SDS011;11667;51.706;4.856;2023-02-26T10:40:12;1.22;;;0.70;;
23001;SDS011;11667;51.706;4.856;2023-02-26T10:42:57;1.90;;;0.75;;
23001;SDS011;11667;51.706;4.856;2023-02-26T10:48:12;5.60;;;1.02;;
23001;SDS011;11667;51.706;4.856;2023-02-26T10:50:47;4.37;;;1.00;;
23001;SDS011;11667;51.706;4.856;2023-02-26T10:53:23;2.22;;;0.90;;
23001;SDS011;11667;51.706;4.856;2023-02-26T10:55:56;2.95;;;0.70;;
23001;SDS011;11667;51.706;4.856;2023-02-26T10:58:27;2.47;;;0.95;;
23001;SDS011;11667;51.706;4.856;2023-02-26T11:00:56;3.35;;;0.95;;
23001;SDS011;11667;51.706;4.856;2023-02-26T11:03:29;3.35;;;1.50;;
23001;SDS011;11667;51.706;4.856;2023-02-26T11:06:01;3.15;;;1.50;;
23001;SDS011;11667;51.706;4.856;2023-02-26T11:08:34;4.20;;;1.00;;
23001;SDS011;11667;51.706;4.856;2023-02-26T11:11:05;2.12;;;0.88;;
23001;SDS011;11667;51.706;4.856;2023-02-26T11:13:36;1.80;;;0.70;;
23001;SDS011;11667;51.706;4.856;2023-02-26T11:16:10;2.83;;;0.90;;
23001;SDS011;11667;51.706;4.856;2023-02-26T11:18:48;1.55;;;0.75;;
23001;SDS011;11667;51.706;4.856;2023-02-26T11:21:22;2.52;;;0.60;;
23001;SDS011;11667;51.706;4.856;2023-02-26T11:24:00;3.52;;;0.70;;
23001;SDS011;11667;51.706;4.856;2023-02-26T11:26:26;2.05;;;0.70;;
23001;SDS011;11667;51.706;4.856;2023-02-26T11:28:59;3.05;;;0.80;;
23001;SDS011;11667;51.706;4.856;2023-02-26T11:31:28;2.98;;;0.70;;
23001;SDS011;11667;51.706;4.856;2023-02-26T11:34:01;2.65;;;0.80;;
23001;SDS011;11667;51.706;4.856;2023-02-26T11:36:31;3.47;;;0.70;;
23001;SDS011;11667;51.706;4.856;2023-02-26T11:39:04;2.33;;;0.70;;
23001;SDS011;11667;51.706;4.856;2023-02-26T11:44:06;1.82;;;0.60;;
23001;SDS011;11667;51.706;4.856;2023-02-26T11:46:37;3.90;;;0.63;;
23001;SDS011;11667;51.706;4.856;2023-02-26T11:49:08;2.12;;;0.78;;
23001;SDS011;11667;51.706;4.856;2023-02-26T11:51:41;2.58;;;0.62;;
23001;SDS011;11667;51.706;4.856;2023-02-26T11:54:20;2.70;;;0.90;;
23001;SDS011;11667;51.706;4.856;2023-02-26T11:56:51;4.65;;;0.93;;
23001;SDS011;11667;51.706;4.856;2023-02-26T11:59:21;1.55;;;0.70;;
23001;SDS011;11667;51.706;4.856;2023-02-26T12:01:52;1.75;;;0.80;;
23001;SDS011;11667;51.706;4.856;2023-02-26T12:04:23;2.60;;;1.00;;
23001;SDS011;11667;51.706;4.856;2023-02-26T12:06:54;2.45;;;0.90;;
23001;SDS011;11667;51.706;4.856;2023-02-26T12:09:24;2.02;;;0.80;;
23001;SDS011;11667;51.706;4.856;2023-02-26T12:12:04;2.98;;;0.80;;
23001;SDS011;11667;51.706;4.856;2023-02-26T12:39:56;1.47;;;0.90;;
23001;SDS011;11667;51.706;4.856;2023-02-26T12:48:32;1.50;;;0.70;;
23001;SDS011;11667;51.706;4.856;2023-02-26T13:02:55;3.05;;;1.02;;
23001;SDS011;11667;51.706;4.856;2023-02-26T13:16:29;3.52;;;0.70;;
23001;SDS011;11667;51.706;4.856;2023-02-26T13:19:04;3.42;;;0.82;;
23001;SDS011;11667;51.706;4.856;2023-02-26T13:21:54;1.95;;;0.90;;
23001;SDS011;11667;51.706;4.856;2023-02-26T13:24:25;1.35;;;0.70;;
23001;SDS011;11667;51.706;4.856;2023-02-26T13:26:56;1.70;;;0.85;;
23001;SDS011;11667;51.706;4.856;2023-02-26T13:29:31;1.77;;;0.70;;
23001;SDS011;11667;51.706;4.856;2023-02-26T13:32:07;2.05;;;0.80;;
23001;SDS011;11667;51.706;4.856;2023-02-26T13:34:40;1.75;;;0.70;;
23001;SDS011;11667;51.706;4.856;2023-02-26T13:37:25;1.60;;;0.60;;
23001;SDS011;11667;51.706;4.856;2023-02-26T13:45:47;1.50;;;0.67;;
23001;SDS011;11667;51.706;4.856;2023-02-26T13:48:21;1.47;;;0.80;;
23001;SDS011;11667;51.706;4.856;2023-02-26T13:56:41;1.42;;;0.75;;
23001;SDS011;11667;51.706;4.856;2023-02-26T14:01:52;4.20;;;0.80;;
23001;SDS011;11667;51.706;4.856;2023-02-26T14:17:48;1.77;;;0.90;;
23001;SDS011;11667;51.706;4.856;2023-02-26T14:20:23;4.13;;;0.87;;
23001;SDS011;11667;51.706;4.856;2023-02-26T14:22:58;2.92;;;0.80;;
23001;SDS011;11667;51.706;4.856;2023-02-26T14:25:40;2.65;;;0.80;;
23001;SDS011;11667;51.706;4.856;2023-02-26T14:31:16;3.30;;;0.70;;
23001;SDS011;11667;51.706;4.856;2023-02-26T14:42:01;2.92;;;0.90;;
23001;SDS011;11667;51.706;4.856;2023-02-26T14:47:04;4.47;;;0.80;;
23001;SDS011;11667;51.706;4.856;2023-02-26T14:49:35;2.75;;;0.90;;
23001;SDS011;11667;51.706;4.856;2023-02-26T14:55:02;2.87;;;0.80;;
23001;SDS011;11667;51.706;4.856;2023-02-26T14:57:52;2.52;;;0.70;;
23001;SDS011;11667;51.706;4.856;2023-02-26T15:00:35;1.50;;;0.60;;
23001;SDS011;11667;51.706;4.856;2023-02-26T15:03:22;1.90;;;0.80;;
23001;SDS011;11667;51.706;4.856;2023-02-26T15:08:35;1.92;;;0.50;;
23001;SDS011;11667;51.706;4.856;2023-02-26T15:11:28;1.30;;;0.60;;
23001;SDS011;11667;51.706;4.856;2023-02-26T15:13:56;2.85;;;0.70;;
23001;SDS011;11667;51.706;4.856;2023-02-26T15:24:50;1.80;;;0.70;;
23001;SDS011;11667;51.706;4.856;2023-02-26T15:27:20;4.37;;;1.00;;
23001;SDS011;11667;51.706;4.856;2023-02-26T15:29:49;2.80;;;0.85;;
23001;SDS011;11667;51.706;4.856;2023-02-26T15:32:24;1.77;;;0.80;;
23001;SDS011;11667;51.706;4.856;2023-02-26T15:39:59;1.77;;;0.50;;
23001;SDS011;11667;51.706;4.856;2023-02-26T15:42:32;2.02;;;0.80;;
23001;SDS011;11667;51.706;4.856;2023-02-26T15:45:08;0.90;;;0.60;;
23001;SDS011;11667;51.706;4.856;2023-02-26T15:47:43;3.65;;;0.75;;
23001;SDS011;11667;51.706;4.856;2023-02-26T15:50:14;1.12;;;0.57;;
23001;SDS011;11667;51.706;4.856;2023-02-26T15:52:45;2.27;;;0.70;;
23001;SDS011;11667;51.706;4.856;2023-02-26T15:55:16;1.60;;;0.60;;
23001;SDS011;11667;51.706;4.856;2023-02-26T15:57:46;1.32;;;0.60;;
23001;SDS011;11667;51.706;4.856;2023-02-26T16:00:17;1.52;;;0.60;;
23001;SDS011;11667;51.706;4.856;2023-02-26T16:02:54;2.27;;;0.62;;
23001;SDS011;11667;51.706;4.856;2023-02-26T16:05:25;2.20;;;0.62;;
23001;SDS011;11667;51.706;4.856;2023-02-26T16:07:55;1.30;;;0.65;;
23001;SDS011;11667;51.706;4.856;2023-02-26T16:10:26;1.17;;;0.72;;
23001;SDS011;11667;51.706;4.856;2023-02-26T16:12:58;0.75;;;0.53;;
23001;SDS011;11667;51.706;4.856;2023-02-26T16:15:31;2.67;;;0.80;;
23001;SDS011;11667;51.706;4.856;2023-02-26T16:18:07;1.85;;;0.70;;
23001;SDS011;11667;51.706;4.856;2023-02-26T16:20:39;1.95;;;0.70;;
23001;SDS011;11667;51.706;4.856;2023-02-26T16:23:16;0.80;;;0.53;;
23001;SDS011;11667;51.706;4.856;2023-02-26T16:25:50;1.12;;;0.70;;
23001;SDS011;11667;51.706;4.856;2023-02-26T16:28:31;2.02;;;0.90;;
23001;SDS011;11667;51.706;4.856;2023-02-26T16:31:04;2.62;;;0.85;;
23001;SDS011;11667;51.706;4.856;2023-02-26T16:33:39;3.33;;;0.90;;
23001;SDS011;11667;51.706;4.856;2023-02-26T16:36:11;2.27;;;0.70;;
23001;SDS011;11667;51.706;4.856;2023-02-26T16:41:20;1.67;;;0.70;;
23001;SDS011;11667;51.706;4.856;2023-02-26T16:46:20;2.62;;;0.75;;
23001;SDS011;11667;51.706;4.856;2023-02-26T16:51:35;2.30;;;0.80;;
23001;SDS011;11667;51.706;4.856;2023-02-26T16:54:19;2.35;;;0.60;;
23001;SDS011;11667;51.706;4.856;2023-02-26T16:57:11;3.90;;;0.75;;
23001;SDS011;11667;51.706;4.856;2023-02-26T16:59:36;1.30;;;0.83;;
23001;SDS011;11667;51.706;4.856;2023-02-26T17:02:16;3.75;;;0.98;;
23001;SDS011;11667;51.706;4.856;2023-02-26T17:05:04;2.65;;;0.95;;
23001;SDS011;11667;51.706;4.856;2023-02-26T17:07:31;2.58;;;0.70;;
23001;SDS011;11667;51.706;4.856;2023-02-26T17:10:15;3.12;;;0.90;;
23001;SDS011;11667;51.706;4.856;2023-02-26T17:12:46;5.37;;;1.17;;
23001;SDS011;11667;51.706;4.856;2023-02-26T17:15:25;2.85;;;0.80;;
23001;SDS011;11667;51.706;4.856;2023-02-26T17:18:02;2.40;;;0.75;;
23001;SDS011;11667;51.706;4.856;2023-02-26T17:20:32;1.98;;;0.70;;
23001;SDS011;11667;51.706;4.856;2023-02-26T17:23:01;1.07;;;0.80;;
23001;SDS011;11667;51.706;4.856;2023-02-26T17:25:33;3.10;;;0.82;;
23001;SDS011;11667;51.706;4.856;2023-02-26T17:30:34;2.65;;;1.00;;
23001;SDS011;11667;51.706;4.856;2023-02-26T17:33:04;3.42;;;0.90;;
23001;SDS011;11667;51.706;4.856;2023-02-26T17:38:06;2.92;;;1.07;;
23001;SDS011;11667;51.706;4.856;2023-02-26T17:40:41;2.40;;;1.00;;
23001;SDS011;11667;51.706;4.856;2023-02-26T17:43:11;2.80;;;0.95;;
23001;SDS011;11667;51.706;4.856;2023-02-26T17:45:41;3.62;;;1.00;;
23001;SDS011;11667;51.706;4.856;2023-02-26T17:48:11;3.47;;;1.07;;
23001;SDS011;11667;51.706;4.856;2023-02-26T17:50:46;2.90;;;0.78;;
23001;SDS011;11667;51.706;4.856;2023-02-26T17:53:18;1.77;;;0.80;;
23001;SDS011;11667;51.706;4.856;2023-02-26T17:55:49;3.17;;;1.15;;
23001;SDS011;11667;51.706;4.856;2023-02-26T17:58:27;3.02;;;1.00;;
23001;SDS011;11667;51.706;4.856;2023-02-26T18:00:58;2.47;;;1.07;;
23001;SDS011;11667;51.706;4.856;2023-02-26T18:03:30;3.75;;;1.25;;
23001;SDS011;11667;51.706;4.856;2023-02-26T18:06:00;2.58;;;1.15;;
23001;SDS011;11667;51.706;4.856;2023-02-26T18:08:30;4.83;;;1.20;;
23001;SDS011;11667;51.706;4.856;2023-02-26T18:11:01;4.70;;;1.10;;
23001;SDS011;11667;51.706;4.856;2023-02-26T18:13:31;3.30;;;1.02;;
23001;SDS011;11667;51.706;4.856;2023-02-26T18:16:01;5.28;;;1.10;;
23001;SDS011;11667;51.706;4.856;2023-02-26T18:18:31;2.67;;;1.20;;
23001;SDS011;11667;51.706;4.856;2023-02-26T18:21:00;2.22;;;1.05;;
23001;SDS011;11667;51.706;4.856;2023-02-26T18:23:31;5.35;;;1.20;;
23001;SDS011;11667;51.706;4.856;2023-02-26T18:26:00;6.30;;;1.40;;
23001;SDS011;11667;51.706;4.856;2023-02-26T18:28:30;5.25;;;1.00;;
23001;SDS011;11667;51.706;4.856;2023-02-26T18:31:00;3.12;;;1.10;;
23001;SDS011;11667;51.706;4.856;2023-02-26T18:33:31;6.53;;;1.35;;
23001;SDS011;11667;51.706;4.856;2023-02-26T18:36:00;4.17;;;1.20;;